Byron, New York
Current Conditions -  °F | °C
As of 4:54 PM on Saturday 27 Dec 2014 (Local Time) from KROC Reporting Station
Broken Clouds Broken Clouds  
Wind Chill: 52°   Ceiling: 6000
Heat Index: 52°   Visibility: 10mi
Dew Point: 39°   Wind: 9mph
Humidity: 61%   Direction: 190°S
Pressure: 29.97"   Gusts: NA
Location:  43.08°N, 78.06°W
Report Text: KROC 272154Z 19008KT 10SM FEW037 BKN060 11/04 A2997 RMK AO2 SLP154 T01110039
Loading
Personal Weather Stations






























Interactive Weather Map New forecast layout! Learn more

10-Day Weather Forecast

Advertisements
Track Severe Weather on mobile